sensor_id;sensor_type;location;lat;lon;timestamp;temperature;humidity
17178;DHT22;8704;52.006;4.374;2022-10-16T00:01:07;13.90;99.90
17178;DHT22;8704;52.006;4.374;2022-10-16T00:03:35;13.90;99.90
17178;DHT22;8704;52.006;4.374;2022-10-16T00:06:03;14.60;99.90
17178;DHT22;8704;52.006;4.374;2022-10-16T00:08:32;14.00;99.90
17178;DHT22;8704;52.006;4.374;2022-10-16T00:11:02;14.00;99.90
17178;DHT22;8704;52.006;4.374;2022-10-16T00:13:31;14.00;99.90
17178;DHT22;8704;52.006;4.374;2022-10-16T00:16:00;13.90;99.90
17178;DHT22;8704;52.006;4.374;2022-10-16T00:18:29;14.00;99.90
17178;DHT22;8704;52.006;4.374;2022-10-16T00:21:02;13.90;99.90
17178;DHT22;8704;52.006;4.374;2022-10-16T00:23:30;14.00;99.90
17178;DHT22;8704;52.006;4.374;2022-10-16T00:26:00;14.00;99.90
17178;DHT22;8704;52.006;4.374;2022-10-16T00:28:29;14.00;99.90
17178;DHT22;8704;52.006;4.374;2022-10-16T00:30:57;14.00;99.90
17178;DHT22;8704;52.006;4.374;2022-10-16T00:33:25;14.00;99.90
17178;DHT22;8704;52.006;4.374;2022-10-16T00:35:57;14.00;99.90
17178;DHT22;8704;52.006;4.374;2022-10-16T00:38:25;14.00;99.90
17178;DHT22;8704;52.006;4.374;2022-10-16T00:40:53;14.00;99.90
17178;DHT22;8704;52.006;4.374;2022-10-16T00:43:37;13.90;99.90
17178;DHT22;8704;52.006;4.374;2022-10-16T00:46:12;13.90;99.90
17178;DHT22;8704;52.006;4.374;2022-10-16T00:48:41;13.90;99.90
17178;DHT22;8704;52.006;4.374;2022-10-16T00:51:12;13.90;99.90
17178;DHT22;8704;52.006;4.374;2022-10-16T00:53:39;13.90;99.90
17178;DHT22;8704;52.006;4.374;2022-10-16T00:56:07;13.90;99.90
17178;DHT22;8704;52.006;4.374;2022-10-16T00:58:36;13.90;99.90
17178;DHT22;8704;52.006;4.374;2022-10-16T01:01:04;14.00;99.90
17178;DHT22;8704;52.006;4.374;2022-10-16T01:03:34;13.90;99.90
17178;DHT22;8704;52.006;4.374;2022-10-16T01:06:11;13.90;99.90
17178;DHT22;8704;52.006;4.374;2022-10-16T01:08:53;13.90;99.90
17178;DHT22;8704;52.006;4.374;2022-10-16T01:11:28;13.90;99.90
17178;DHT22;8704;52.006;4.374;2022-10-16T01:14:08;13.80;99.90
17178;DHT22;8704;52.006;4.374;2022-10-16T01:16:44;13.90;99.90
17178;DHT22;8704;52.006;4.374;2022-10-16T01:19:17;13.80;99.90
17178;DHT22;8704;52.006;4.374;2022-10-16T01:21:48;13.80;99.90
17178;DHT22;8704;52.006;4.374;2022-10-16T01:24:31;13.80;99.90
17178;DHT22;8704;52.006;4.374;2022-10-16T01:27:08;13.70;99.90
17178;DHT22;8704;52.006;4.374;2022-10-16T01:29:41;13.70;99.90
17178;DHT22;8704;52.006;4.374;2022-10-16T01:32:15;13.70;99.90
17178;DHT22;8704;52.006;4.374;2022-10-16T01:34:48;13.70;99.90
17178;DHT22;8704;52.006;4.374;2022-10-16T01:37:32;13.60;99.90
17178;DHT22;8704;52.006;4.374;2022-10-16T01:40:04;13.60;99.90
17178;DHT22;8704;52.006;4.374;2022-10-16T01:42:37;13.60;99.90
17178;DHT22;8704;52.006;4.374;2022-10-16T01:45:07;13.80;99.90
17178;DHT22;8704;52.006;4.374;2022-10-16T01:47:39;13.60;99.90
17178;DHT22;8704;52.006;4.374;2022-10-16T01:50:08;13.60;99.90
17178;DHT22;8704;52.006;4.374;2022-10-16T01:52:39;13.60;99.90
17178;DHT22;8704;52.006;4.374;2022-10-16T01:55:09;13.60;99.90
17178;DHT22;8704;52.006;4.374;2022-10-16T01:57:42;13.60;99.90
17178;DHT22;8704;52.006;4.374;2022-10-16T02:00:13;13.50;99.90
17178;DHT22;8704;52.006;4.374;2022-10-16T02:02:44;13.60;99.90
17178;DHT22;8704;52.006;4.374;2022-10-16T02:05:20;13.60;99.90
17178;DHT22;8704;52.006;4.374;2022-10-16T02:07:49;13.60;99.90
17178;DHT22;8704;52.006;4.374;2022-10-16T02:10:17;13.60;99.90
17178;DHT22;8704;52.006;4.374;2022-10-16T02:12:51;13.50;99.90
17178;DHT22;8704;52.006;4.374;2022-10-16T02:15:20;13.60;99.90
17178;DHT22;8704;52.006;4.374;2022-10-16T02:17:48;13.60;99.90
17178;DHT22;8704;52.006;4.374;2022-10-16T02:20:17;13.60;99.90
17178;DHT22;8704;52.006;4.374;2022-10-16T02:22:48;13.60;99.90
17178;DHT22;8704;52.006;4.374;2022-10-16T02:25:22;13.60;99.90
17178;DHT22;8704;52.006;4.374;2022-10-16T02:27:55;13.90;99.90
17178;DHT22;8704;52.006;4.374;2022-10-16T02:30:29;13.50;99.90
17178;DHT22;8704;52.006;4.374;2022-10-16T02:32:59;13.50;99.90
17178;DHT22;8704;52.006;4.374;2022-10-16T02:35:29;13.50;99.90
17178;DHT22;8704;52.006;4.374;2022-10-16T02:37:58;13.50;99.90
17178;DHT22;8704;52.006;4.374;2022-10-16T02:40:27;13.50;99.90
17178;DHT22;8704;52.006;4.374;2022-10-16T02:42:56;13.40;99.90
17178;DHT22;8704;52.006;4.374;2022-10-16T02:45:24;13.40;99.90
17178;DHT22;8704;52.006;4.374;2022-10-16T02:47:52;13.40;99.90
17178;DHT22;8704;52.006;4.374;2022-10-16T02:50:21;13.40;99.90
17178;DHT22;8704;52.006;4.374;2022-10-16T02:52:49;13.70;99.90
17178;DHT22;8704;52.006;4.374;2022-10-16T02:55:17;13.40;99.90
17178;DHT22;8704;52.006;4.374;2022-10-16T02:57:45;13.40;99.90
17178;DHT22;8704;52.006;4.374;2022-10-16T03:00:15;13.40;99.90
17178;DHT22;8704;52.006;4.374;2022-10-16T03:02:44;13.30;99.90
17178;DHT22;8704;52.006;4.374;2022-10-16T03:05:12;13.40;99.90
17178;DHT22;8704;52.006;4.374;2022-10-16T03:07:40;13.40;99.90
17178;DHT22;8704;52.006;4.374;2022-10-16T03:10:09;13.60;99.90
17178;DHT22;8704;52.006;4.374;2022-10-16T03:12:37;13.50;99.90
17178;DHT22;8704;52.006;4.374;2022-10-16T03:15:05;13.40;99.90
17178;DHT22;8704;52.006;4.374;2022-10-16T03:17:35;13.40;99.90
17178;DHT22;8704;52.006;4.374;2022-10-16T03:20:04;13.40;99.90
17178;DHT22;8704;52.006;4.374;2022-10-16T03:22:32;13.40;99.90
17178;DHT22;8704;52.006;4.374;2022-10-16T03:25:00;13.00;99.90
17178;DHT22;8704;52.006;4.374;2022-10-16T03:27:27;13.40;99.90
17178;DHT22;8704;52.006;4.374;2022-10-16T03:29:55;13.40;99.90
17178;DHT22;8704;52.006;4.374;2022-10-16T03:32:23;13.40;99.90
17178;DHT22;8704;52.006;4.374;2022-10-16T03:34:53;13.40;99.90
17178;DHT22;8704;52.006;4.374;2022-10-16T03:37:23;13.40;99.90
17178;DHT22;8704;52.006;4.374;2022-10-16T03:39:51;13.40;99.90
17178;DHT22;8704;52.006;4.374;2022-10-16T03:42:19;13.40;99.90
17178;DHT22;8704;52.006;4.374;2022-10-16T03:44:47;13.40;99.90
17178;DHT22;8704;52.006;4.374;2022-10-16T03:47:15;13.40;99.90
17178;DHT22;8704;52.006;4.374;2022-10-16T03:49:47;13.40;99.90
17178;DHT22;8704;52.006;4.374;2022-10-16T03:52:16;13.30;99.90
17178;DHT22;8704;52.006;4.374;2022-10-16T03:54:49;13.30;99.90
17178;DHT22;8704;52.006;4.374;2022-10-16T03:57:17;13.20;99.90
17178;DHT22;8704;52.006;4.374;2022-10-16T03:59:45;13.20;99.90
17178;DHT22;8704;52.006;4.374;2022-10-16T04:02:13;13.20;99.90
17178;DHT22;8704;52.006;4.374;2022-10-16T04:04:41;13.20;99.90
17178;DHT22;8704;52.006;4.374;2022-10-16T04:07:09;13.20;99.90
17178;DHT22;8704;52.006;4.374;2022-10-16T04:09:38;13.20;99.90
17178;DHT22;8704;52.006;4.374;2022-10-16T04:12:06;13.60;99.90
17178;DHT22;8704;52.006;4.374;2022-10-16T04:14:34;13.20;99.90
17178;DHT22;8704;52.006;4.374;2022-10-16T04:17:02;13.20;99.90
17178;DHT22;8704;52.006;4.374;2022-10-16T04:19:30;13.20;99.90
17178;DHT22;8704;52.006;4.374;2022-10-16T04:21:58;13.20;99.90
17178;DHT22;8704;52.006;4.374;2022-10-16T04:24:25;13.20;99.90
17178;DHT22;8704;52.006;4.374;2022-10-16T04:26:55;13.20;99.90
17178;DHT22;8704;52.006;4.374;2022-10-16T04:29:23;13.30;99.90
17178;DHT22;8704;52.006;4.374;2022-10-16T04:31:51;13.20;99.90
17178;DHT22;8704;52.006;4.374;2022-10-16T04:34:19;13.20;99.90
17178;DHT22;8704;52.006;4.374;2022-10-16T04:36:47;13.20;99.90
17178;DHT22;8704;52.006;4.374;2022-10-16T04:39:16;13.20;99.90
17178;DHT22;8704;52.006;4.374;2022-10-16T04:41:44;13.20;99.90
17178;DHT22;8704;52.006;4.374;2022-10-16T04:44:13;13.20;99.90
17178;DHT22;8704;52.006;4.374;2022-10-16T04:46:41;13.20;99.90
17178;DHT22;8704;52.006;4.374;2022-10-16T04:49:09;13.20;99.90
17178;DHT22;8704;52.006;4.374;2022-10-16T04:51:37;13.20;99.90
17178;DHT22;8704;52.006;4.374;2022-10-16T04:54:05;13.30;99.90
17178;DHT22;8704;52.006;4.374;2022-10-16T04:56:33;13.30;99.90
17178;DHT22;8704;52.006;4.374;2022-10-16T04:59:06;13.30;99.90
17178;DHT22;8704;52.006;4.374;2022-10-16T05:01:35;13.30;99.90
17178;DHT22;8704;52.006;4.374;2022-10-16T05:04:03;13.30;99.90
17178;DHT22;8704;52.006;4.374;2022-10-16T05:06:32;13.30;99.90
17178;DHT22;8704;52.006;4.374;2022-10-16T05:08:59;13.30;99.90
17178;DHT22;8704;52.006;4.374;2022-10-16T05:11:27;13.30;99.90
17178;DHT22;8704;52.006;4.374;2022-10-16T05:13:55;13.20;99.90
17178;DHT22;8704;52.006;4.374;2022-10-16T05:16:23;13.20;99.90
17178;DHT22;8704;52.006;4.374;2022-10-16T05:18:53;13.20;99.90
17178;DHT22;8704;52.006;4.374;2022-10-16T05:21:29;13.20;99.90
17178;DHT22;8704;52.006;4.374;2022-10-16T05:23:57;13.20;99.90
17178;DHT22;8704;52.006;4.374;2022-10-16T05:26:25;13.30;99.90
17178;DHT22;8704;52.006;4.374;2022-10-16T05:28:53;13.20;99.90
17178;DHT22;8704;52.006;4.374;2022-10-16T05:31:21;13.10;99.90
17178;DHT22;8704;52.006;4.374;2022-10-16T05:33:49;13.10;99.90
17178;DHT22;8704;52.006;4.374;2022-10-16T05:36:18;13.40;99.90
17178;DHT22;8704;52.006;4.374;2022-10-16T05:38:50;13.10;99.90
17178;DHT22;8704;52.006;4.374;2022-10-16T05:41:19;13.10;99.90
17178;DHT22;8704;52.006;4.374;2022-10-16T05:43:48;13.10;99.90
17178;DHT22;8704;52.006;4.374;2022-10-16T05:46:16;13.20;99.90
17178;DHT22;8704;52.006;4.374;2022-10-16T05:48:44;13.00;99.90
17178;DHT22;8704;52.006;4.374;2022-10-16T05:51:14;13.00;99.90
17178;DHT22;8704;52.006;4.374;2022-10-16T05:53:43;13.00;99.90
17178;DHT22;8704;52.006;4.374;2022-10-16T05:56:11;13.00;99.90
17178;DHT22;8704;52.006;4.374;2022-10-16T05:58:40;13.00;99.90
17178;DHT22;8704;52.006;4.374;2022-10-16T06:01:11;13.00;99.90
17178;DHT22;8704;52.006;4.374;2022-10-16T06:03:40;13.00;99.90
17178;DHT22;8704;52.006;4.374;2022-10-16T06:06:09;13.00;99.90
17178;DHT22;8704;52.006;4.374;2022-10-16T06:08:38;12.90;99.90
17178;DHT22;8704;52.006;4.374;2022-10-16T06:11:12;12.90;99.90
17178;DHT22;8704;52.006;4.374;2022-10-16T06:13:40;12.90;99.90
17178;DHT22;8704;52.006;4.374;2022-10-16T06:16:10;12.90;99.90
17178;DHT22;8704;52.006;4.374;2022-10-16T06:18:38;12.90;99.90
17178;DHT22;8704;52.006;4.374;2022-10-16T06:21:11;12.90;99.90
17178;DHT22;8704;52.006;4.374;2022-10-16T06:23:39;12.90;99.90
17178;DHT22;8704;52.006;4.374;2022-10-16T06:26:10;12.90;99.90
17178;DHT22;8704;52.006;4.374;2022-10-16T06:28:38;13.10;99.90
17178;DHT22;8704;52.006;4.374;2022-10-16T06:31:07;12.80;99.90
17178;DHT22;8704;52.006;4.374;2022-10-16T06:33:36;13.00;99.90
17178;DHT22;8704;52.006;4.374;2022-10-16T06:36:05;13.40;99.90
17178;DHT22;8704;52.006;4.374;2022-10-16T06:38:34;12.80;99.90
17178;DHT22;8704;52.006;4.374;2022-10-16T06:41:02;12.90;99.90
17178;DHT22;8704;52.006;4.374;2022-10-16T06:43:32;12.80;99.90
17178;DHT22;8704;52.006;4.374;2022-10-16T06:46:03;12.90;99.90
17178;DHT22;8704;52.006;4.374;2022-10-16T06:48:32;12.80;99.90
17178;DHT22;8704;52.006;4.374;2022-10-16T06:51:01;12.80;99.90
17178;DHT22;8704;52.006;4.374;2022-10-16T06:53:36;12.80;99.90
17178;DHT22;8704;52.006;4.374;2022-10-16T06:56:25;12.80;99.90
17178;DHT22;8704;52.006;4.374;2022-10-16T06:58:55;12.80;99.90
17178;DHT22;8704;52.006;4.374;2022-10-16T07:01:24;12.80;99.90
17178;DHT22;8704;52.006;4.374;2022-10-16T07:03:52;12.70;99.90
17178;DHT22;8704;52.006;4.374;2022-10-16T07:06:23;12.80;99.90
17178;DHT22;8704;52.006;4.374;2022-10-16T07:08:51;12.80;99.90
17178;DHT22;8704;52.006;4.374;2022-10-16T07:11:21;12.80;99.90
17178;DHT22;8704;52.006;4.374;2022-10-16T07:13:50;12.70;99.90
17178;DHT22;8704;52.006;4.374;2022-10-16T07:16:24;12.70;99.90
17178;DHT22;8704;52.006;4.374;2022-10-16T07:18:53;12.70;99.90
17178;DHT22;8704;52.006;4.374;2022-10-16T07:21:26;12.70;99.90
17178;DHT22;8704;52.006;4.374;2022-10-16T07:23:56;12.70;99.90
17178;DHT22;8704;52.006;4.374;2022-10-16T07:26:25;12.80;99.90
17178;DHT22;8704;52.006;4.374;2022-10-16T07:28:54;12.80;99.90
17178;DHT22;8704;52.006;4.374;2022-10-16T07:31:23;12.80;99.90
17178;DHT22;8704;52.006;4.374;2022-10-16T07:33:51;12.80;99.90
17178;DHT22;8704;52.006;4.374;2022-10-16T07:36:20;12.80;99.90
17178;DHT22;8704;52.006;4.374;2022-10-16T07:38:48;12.80;99.90
17178;DHT22;8704;52.006;4.374;2022-10-16T07:41:21;12.80;99.90
17178;DHT22;8704;52.006;4.374;2022-10-16T07:43:49;12.80;99.90
17178;DHT22;8704;52.006;4.374;2022-10-16T07:46:19;12.80;99.90
17178;DHT22;8704;52.006;4.374;2022-10-16T07:48:48;12.90;99.90
17178;DHT22;8704;52.006;4.374;2022-10-16T07:51:18;12.90;99.90
17178;DHT22;8704;52.006;4.374;2022-10-16T07:53:46;12.90;99.90
17178;DHT22;8704;52.006;4.374;2022-10-16T07:56:16;12.90;99.90
17178;DHT22;8704;52.006;4.374;2022-10-16T07:58:45;12.90;99.90
17178;DHT22;8704;52.006;4.374;2022-10-16T08:01:14;12.90;99.90
17178;DHT22;8704;52.006;4.374;2022-10-16T08:03:43;12.90;99.90
17178;DHT22;8704;52.006;4.374;2022-10-16T08:06:13;13.00;99.90
17178;DHT22;8704;52.006;4.374;2022-10-16T08:08:41;12.90;99.90
17178;DHT22;8704;52.006;4.374;2022-10-16T08:11:10;13.00;99.90
17178;DHT22;8704;52.006;4.374;2022-10-16T08:13:37;13.00;99.90
17178;DHT22;8704;52.006;4.374;2022-10-16T08:16:06;13.10;99.90
17178;DHT22;8704;52.006;4.374;2022-10-16T08:18:36;13.10;99.90
17178;DHT22;8704;52.006;4.374;2022-10-16T08:21:05;13.20;99.90
17178;DHT22;8704;52.006;4.374;2022-10-16T08:23:35;13.20;99.90
17178;DHT22;8704;52.006;4.374;2022-10-16T08:26:05;13.20;99.90
17178;DHT22;8704;52.006;4.374;2022-10-16T08:28:33;13.20;99.90
17178;DHT22;8704;52.006;4.374;2022-10-16T08:31:06;13.30;99.90
17178;DHT22;8704;52.006;4.374;2022-10-16T08:33:33;13.30;99.90
17178;DHT22;8704;52.006;4.374;2022-10-16T08:36:03;13.40;99.90
17178;DHT22;8704;52.006;4.374;2022-10-16T08:38:31;13.40;99.90
17178;DHT22;8704;52.006;4.374;2022-10-16T08:41:20;13.40;99.90
17178;DHT22;8704;52.006;4.374;2022-10-16T08:46:58;13.60;99.90
17178;DHT22;8704;52.006;4.374;2022-10-16T08:49:29;13.60;99.90
17178;DHT22;8704;52.006;4.374;2022-10-16T08:51:58;13.50;99.90
17178;DHT22;8704;52.006;4.374;2022-10-16T08:54:29;13.70;99.90
17178;DHT22;8704;52.006;4.374;2022-10-16T08:57:09;13.70;99.90
17178;DHT22;8704;52.006;4.374;2022-10-16T08:59:37;13.80;99.90
17178;DHT22;8704;52.006;4.374;2022-10-16T09:02:20;13.90;99.90
17178;DHT22;8704;52.006;4.374;2022-10-16T09:04:59;13.80;99.90
17178;DHT22;8704;52.006;4.374;2022-10-16T09:07:34;13.90;99.90
17178;DHT22;8704;52.006;4.374;2022-10-16T09:10:25;13.90;99.90
17178;DHT22;8704;52.006;4.374;2022-10-16T09:13:03;13.90;99.90
17178;DHT22;8704;52.006;4.374;2022-10-16T09:15:40;14.00;99.90
17178;DHT22;8704;52.006;4.374;2022-10-16T09:18:14;14.00;99.90
17178;DHT22;8704;52.006;4.374;2022-10-16T09:20:49;14.10;99.90
17178;DHT22;8704;52.006;4.374;2022-10-16T09:23:23;14.10;99.90
17178;DHT22;8704;52.006;4.374;2022-10-16T09:25:53;14.10;99.90
17178;DHT22;8704;52.006;4.374;2022-10-16T09:28:24;14.20;99.90
17178;DHT22;8704;52.006;4.374;2022-10-16T09:30:52;14.20;99.90
17178;DHT22;8704;52.006;4.374;2022-10-16T09:33:23;14.30;99.90
17178;DHT22;8704;52.006;4.374;2022-10-16T09:35:54;14.30;99.90
17178;DHT22;8704;52.006;4.374;2022-10-16T09:38:27;14.40;99.90
17178;DHT22;8704;52.006;4.374;2022-10-16T09:40:56;14.40;99.90
17178;DHT22;8704;52.006;4.374;2022-10-16T09:43:34;14.40;99.90
17178;DHT22;8704;52.006;4.374;2022-10-16T09:46:07;14.50;99.90
17178;DHT22;8704;52.006;4.374;2022-10-16T09:48:37;14.60;99.90
17178;DHT22;8704;52.006;4.374;2022-10-16T09:51:17;14.70;99.90
17178;DHT22;8704;52.006;4.374;2022-10-16T09:53:47;14.60;99.90
17178;DHT22;8704;52.006;4.374;2022-10-16T09:56:23;14.70;99.90
17178;DHT22;8704;52.006;4.374;2022-10-16T09:58:54;14.70;99.90
17178;DHT22;8704;52.006;4.374;2022-10-16T10:01:26;14.90;99.90
17178;DHT22;8704;52.006;4.374;2022-10-16T10:03:56;14.90;99.90
17178;DHT22;8704;52.006;4.374;2022-10-16T10:06:29;14.90;99.90
17178;DHT22;8704;52.006;4.374;2022-10-16T10:09:02;14.90;99.90
17178;DHT22;8704;52.006;4.374;2022-10-16T10:11:50;14.90;99.90
17178;DHT22;8704;52.006;4.374;2022-10-16T10:14:26;15.00;99.90
17178;DHT22;8704;52.006;4.374;2022-10-16T10:17:11;15.00;99.90
17178;DHT22;8704;52.006;4.374;2022-10-16T10:19:42;15.00;99.90
17178;DHT22;8704;52.006;4.374;2022-10-16T10:22:27;15.70;99.90
17178;DHT22;8704;52.006;4.374;2022-10-16T10:25:01;15.10;99.90
17178;DHT22;8704;52.006;4.374;2022-10-16T10:27:41;15.10;99.90
17178;DHT22;8704;52.006;4.374;2022-10-16T10:30:19;15.10;99.90
17178;DHT22;8704;52.006;4.374;2022-10-16T10:32:58;15.20;99.90
17178;DHT22;8704;52.006;4.374;2022-10-16T10:35:39;15.20;99.90
17178;DHT22;8704;52.006;4.374;2022-10-16T10:38:20;15.20;99.90
17178;DHT22;8704;52.006;4.374;2022-10-16T10:41:01;15.20;99.90
17178;DHT22;8704;52.006;4.374;2022-10-16T10:43:44;15.20;99.90
17178;DHT22;8704;52.006;4.374;2022-10-16T10:46:19;15.20;99.90
17178;DHT22;8704;52.006;4.374;2022-10-16T10:49:02;15.20;99.90
17178;DHT22;8704;52.006;4.374;2022-10-16T10:51:41;15.20;99.90
17178;DHT22;8704;52.006;4.374;2022-10-16T10:54:17;15.20;99.90
17178;DHT22;8704;52.006;4.374;2022-10-16T10:56:55;15.10;99.90
17178;DHT22;8704;52.006;4.374;2022-10-16T10:59:37;15.10;99.90
17178;DHT22;8704;52.006;4.374;2022-10-16T11:02:17;15.10;99.90
17178;DHT22;8704;52.006;4.374;2022-10-16T11:05:14;15.00;99.90
17178;DHT22;8704;52.006;4.374;2022-10-16T11:07:48;15.00;99.90
17178;DHT22;8704;52.006;4.374;2022-10-16T11:10:20;15.10;99.90
17178;DHT22;8704;52.006;4.374;2022-10-16T11:12:52;15.20;99.90
17178;DHT22;8704;52.006;4.374;2022-10-16T11:15:25;15.20;99.90
17178;DHT22;8704;52.006;4.374;2022-10-16T11:18:02;15.20;99.90
17178;DHT22;8704;52.006;4.374;2022-10-16T11:20:34;15.30;99.90
17178;DHT22;8704;52.006;4.374;2022-10-16T11:23:06;15.40;99.90
17178;DHT22;8704;52.006;4.374;2022-10-16T11:25:36;15.50;99.90
17178;DHT22;8704;52.006;4.374;2022-10-16T11:28:10;15.50;99.90
17178;DHT22;8704;52.006;4.374;2022-10-16T11:30:44;15.60;99.90
17178;DHT22;8704;52.006;4.374;2022-10-16T11:33:36;15.70;99.90
17178;DHT22;8704;52.006;4.374;2022-10-16T11:36:11;15.60;99.90
17178;DHT22;8704;52.006;4.374;2022-10-16T11:38:45;15.70;99.90
17178;DHT22;8704;52.006;4.374;2022-10-16T11:41:23;15.80;99.90
17178;DHT22;8704;52.006;4.374;2022-10-16T11:44:00;15.90;99.90
17178;DHT22;8704;52.006;4.374;2022-10-16T11:46:32;15.90;99.90
17178;DHT22;8704;52.006;4.374;2022-10-16T11:49:26;15.90;99.90
17178;DHT22;8704;52.006;4.374;2022-10-16T11:52:00;16.30;99.90
17178;DHT22;8704;52.006;4.374;2022-10-16T11:54:37;15.90;99.90
17178;DHT22;8704;52.006;4.374;2022-10-16T11:57:11;16.00;99.90
17178;DHT22;8704;52.006;4.374;2022-10-16T11:59:44;16.00;99.90
17178;DHT22;8704;52.006;4.374;2022-10-16T12:02:40;16.00;99.90
17178;DHT22;8704;52.006;4.374;2022-10-16T12:05:19;16.10;91.60
17178;DHT22;8704;52.006;4.374;2022-10-16T12:07:55;16.20;99.90
17178;DHT22;8704;52.006;4.374;2022-10-16T12:10:27;16.30;64.70
17178;DHT22;8704;52.006;4.374;2022-10-16T12:12:55;16.40;75.20
17178;DHT22;8704;52.006;4.374;2022-10-16T12:15:25;16.50;99.90
17178;DHT22;8704;52.006;4.374;2022-10-16T12:18:21;16.40;25.90
17178;DHT22;8704;52.006;4.374;2022-10-16T12:20:56;16.50;99.90
17178;DHT22;8704;52.006;4.374;2022-10-16T12:23:26;16.60;99.90
17178;DHT22;8704;52.006;4.374;2022-10-16T12:25:55;16.50;96.30
17178;DHT22;8704;52.006;4.374;2022-10-16T12:28:27;16.90;99.90
17178;DHT22;8704;52.006;4.374;2022-10-16T12:30:58;16.50;99.90
17178;DHT22;8704;52.006;4.374;2022-10-16T12:33:28;16.60;99.90
17178;DHT22;8704;52.006;4.374;2022-10-16T12:35:59;16.60;99.90
17178;DHT22;8704;52.006;4.374;2022-10-16T12:38:28;16.60;99.90
17178;DHT22;8704;52.006;4.374;2022-10-16T12:41:00;16.70;99.90
17178;DHT22;8704;52.006;4.374;2022-10-16T12:43:37;16.80;96.40
17178;DHT22;8704;52.006;4.374;2022-10-16T12:46:21;16.90;99.90
17178;DHT22;8704;52.006;4.374;2022-10-16T12:48:50;17.10;99.90
17178;DHT22;8704;52.006;4.374;2022-10-16T12:51:38;17.20;99.90
17178;DHT22;8704;52.006;4.374;2022-10-16T12:54:12;17.10;99.90
17178;DHT22;8704;52.006;4.374;2022-10-16T12:56:50;17.40;99.90
17178;DHT22;8704;52.006;4.374;2022-10-16T12:59:31;17.50;99.90
17178;DHT22;8704;52.006;4.374;2022-10-16T13:02:24;17.60;99.90
17178;DHT22;8704;52.006;4.374;2022-10-16T13:05:12;17.60;99.90
17178;DHT22;8704;52.006;4.374;2022-10-16T13:07:52;17.60;99.90
17178;DHT22;8704;52.006;4.374;2022-10-16T13:10:25;17.50;99.90
17178;DHT22;8704;52.006;4.374;2022-10-16T13:13:31;17.70;99.90
17178;DHT22;8704;52.006;4.374;2022-10-16T13:16:10;17.80;99.90
17178;DHT22;8704;52.006;4.374;2022-10-16T13:18:48;17.70;99.90
17178;DHT22;8704;52.006;4.374;2022-10-16T13:21:29;17.80;99.90
17178;DHT22;8704;52.006;4.374;2022-10-16T13:24:06;17.80;99.90
17178;DHT22;8704;52.006;4.374;2022-10-16T13:26:42;17.80;99.90
17178;DHT22;8704;52.006;4.374;2022-10-16T13:29:13;17.70;99.90
17178;DHT22;8704;52.006;4.374;2022-10-16T13:31:43;17.60;44.90
17178;DHT22;8704;52.006;4.374;2022-10-16T13:34:15;17.70;85.10
17178;DHT22;8704;52.006;4.374;2022-10-16T13:36:46;17.70;99.90
17178;DHT22;8704;52.006;4.374;2022-10-16T13:39:22;17.70;99.90
17178;DHT22;8704;52.006;4.374;2022-10-16T13:42:05;17.70;99.90
17178;DHT22;8704;52.006;4.374;2022-10-16T13:44:39;17.70;99.90
17178;DHT22;8704;52.006;4.374;2022-10-16T13:47:15;17.60;57.60
17178;DHT22;8704;52.006;4.374;2022-10-16T13:49:44;17.80;99.90
17178;DHT22;8704;52.006;4.374;2022-10-16T13:52:17;17.70;99.90
17178;DHT22;8704;52.006;4.374;2022-10-16T13:54:47;17.70;99.90
17178;DHT22;8704;52.006;4.374;2022-10-16T13:57:16;17.60;99.90
17178;DHT22;8704;52.006;4.374;2022-10-16T13:59:59;17.70;99.90
17178;DHT22;8704;52.006;4.374;2022-10-16T14:02:29;17.80;99.90
17178;DHT22;8704;52.006;4.374;2022-10-16T14:04:58;17.70;99.90
17178;DHT22;8704;52.006;4.374;2022-10-16T14:07:28;17.80;99.90
17178;DHT22;8704;52.006;4.374;2022-10-16T14:10:01;17.60;70.30
17178;DHT22;8704;52.006;4.374;2022-10-16T14:12:29;17.80;99.90
17178;DHT22;8704;52.006;4.374;2022-10-16T14:14:59;18.00;99.90
17178;DHT22;8704;52.006;4.374;2022-10-16T14:17:29;18.10;99.90
17178;DHT22;8704;52.006;4.374;2022-10-16T14:19:58;17.70;99.90
17178;DHT22;8704;52.006;4.374;2022-10-16T14:22:33;17.60;99.90
17178;DHT22;8704;52.006;4.374;2022-10-16T14:25:22;17.50;99.90
17178;DHT22;8704;52.006;4.374;2022-10-16T14:28:02;17.50;99.90
17178;DHT22;8704;52.006;4.374;2022-10-16T14:30:32;17.50;99.90
17178;DHT22;8704;52.006;4.374;2022-10-16T14:33:01;17.50;99.90
17178;DHT22;8704;52.006;4.374;2022-10-16T14:35:32;17.60;99.90
17178;DHT22;8704;52.006;4.374;2022-10-16T14:38:02;17.50;99.90
17178;DHT22;8704;52.006;4.374;2022-10-16T14:40:33;17.70;99.90
17178;DHT22;8704;52.006;4.374;2022-10-16T14:43:02;17.60;99.90
17178;DHT22;8704;52.006;4.374;2022-10-16T14:45:32;17.50;99.90
17178;DHT22;8704;52.006;4.374;2022-10-16T14:48:03;17.50;99.90
17178;DHT22;8704;52.006;4.374;2022-10-16T14:50:32;17.50;99.90
17178;DHT22;8704;52.006;4.374;2022-10-16T14:53:00;17.50;99.90
17178;DHT22;8704;52.006;4.374;2022-10-16T14:55:28;17.40;99.90
17178;DHT22;8704;52.006;4.374;2022-10-16T14:57:58;17.50;99.90
17178;DHT22;8704;52.006;4.374;2022-10-16T15:00:27;17.30;99.90
17178;DHT22;8704;52.006;4.374;2022-10-16T15:02:55;17.30;99.90
17178;DHT22;8704;52.006;4.374;2022-10-16T15:05:24;17.30;99.90
17178;DHT22;8704;52.006;4.374;2022-10-16T15:07:54;17.30;99.90
17178;DHT22;8704;52.006;4.374;2022-10-16T15:10:23;17.30;99.90
17178;DHT22;8704;52.006;4.374;2022-10-16T15:12:52;17.20;99.90
17178;DHT22;8704;52.006;4.374;2022-10-16T15:15:34;17.10;99.90
17178;DHT22;8704;52.006;4.374;2022-10-16T15:18:02;17.10;99.90
17178;DHT22;8704;52.006;4.374;2022-10-16T15:20:33;17.10;99.90
17178;DHT22;8704;52.006;4.374;2022-10-16T15:23:03;17.10;99.90
17178;DHT22;8704;52.006;4.374;2022-10-16T15:25:36;17.10;99.90
17178;DHT22;8704;52.006;4.374;2022-10-16T15:28:06;17.00;99.90
17178;DHT22;8704;52.006;4.374;2022-10-16T15:30:36;16.90;99.90
17178;DHT22;8704;52.006;4.374;2022-10-16T15:33:08;16.80;99.90
17178;DHT22;8704;52.006;4.374;2022-10-16T15:35:37;16.80;99.90
17178;DHT22;8704;52.006;4.374;2022-10-16T15:38:05;16.70;99.90
17178;DHT22;8704;52.006;4.374;2022-10-16T15:40:33;16.70;99.90
17178;DHT22;8704;52.006;4.374;2022-10-16T15:43:01;16.70;99.90
17178;DHT22;8704;52.006;4.374;2022-10-16T15:45:29;16.60;99.90
17178;DHT22;8704;52.006;4.374;2022-10-16T15:47:58;16.60;99.90
17178;DHT22;8704;52.006;4.374;2022-10-16T15:50:27;16.60;99.90
17178;DHT22;8704;52.006;4.374;2022-10-16T15:52:55;16.60;99.90
17178;DHT22;8704;52.006;4.374;2022-10-16T15:55:23;16.50;99.90
17178;DHT22;8704;52.006;4.374;2022-10-16T15:57:51;16.50;99.90
17178;DHT22;8704;52.006;4.374;2022-10-16T16:00:19;16.60;99.90
17178;DHT22;8704;52.006;4.374;2022-10-16T16:02:53;16.40;99.90
17178;DHT22;8704;52.006;4.374;2022-10-16T16:05:22;16.50;99.90
17178;DHT22;8704;52.006;4.374;2022-10-16T16:07:50;16.30;99.90
17178;DHT22;8704;52.006;4.374;2022-10-16T16:10:21;16.30;99.90
17178;DHT22;8704;52.006;4.374;2022-10-16T16:12:49;16.20;99.90
17178;DHT22;8704;52.006;4.374;2022-10-16T16:15:20;16.20;99.90
17178;DHT22;8704;52.006;4.374;2022-10-16T16:17:48;16.10;99.90